Time;durP1;ratioP1;P1;durP2;ratioP2;P2;SDS_P1;SDS_P2;PMS_P1;PMS_P2;Temp;Humidity;BMP_temperature;BMP_pressure;BME280_temperature;BME280_humidity;BME280_pressure;Samples;Min_cycle;Max_cycle;Signal;HPM_P1;HPM_P2
2022/03/14 00:00:29;;;;;;;;;;;;;;;;;;2209186;59;2009;-70
2022/03/14 00:03:05;;;;;;;;;;;;;;;;;;2208942;67;1140;-70
2022/03/14 00:05:39;;;;;;;;;;;;;;;;;;2208898;59;1149;-70
2022/03/14 00:08:13;;;;;;;;;;;;;;;;;;2208990;59;1652;-70
2022/03/14 00:10:51;;;;;;;;;;;;;;;;;;2209011;59;1244;-70
2022/03/14 00:13:25;;;;;;;;;;;;;;;;;;2208515;67;1180;-70
2022/03/14 00:15:59;;;;;;;;;;;;;;;;;;2207034;67;1101;-70
2022/03/14 00:18:35;;;;;;;;;;;;;;;;;;2208181;67;1228;-69
2022/03/14 00:21:09;;;;;;;;;;;;;;;;;;2207391;59;1929;-70
2022/03/14 00:23:43;;;;;;;;;;;;;;;;;;2206959;67;1286;-70
2022/03/14 00:26:16;;;;;;;;;;;;;;;;;;2207884;67;1109;-70
2022/03/14 00:28:49;;;;;;;;;;;;;;;;;;2207455;59;1597;-70
2022/03/14 00:31:22;;;;;;;;;;;;;;;;;;2209986;67;1251;-70
2022/03/14 00:33:58;;;;;;;;;;;;;;;;;;2207493;67;1070;-70
2022/03/14 00:36:32;;;;;;;;;;;;;;;;;;2207439;67;1092;-70
2022/03/14 00:39:05;;;;;;;;;;;;;;;;;;2207250;67;1933;-70
2022/03/14 00:41:38;;;;;;;;;;;;;;;;;;2207841;67;1249;-70
2022/03/14 00:44:17;;;;;;;;;;;;;;;;;;2207316;67;1094;-70
2022/03/14 00:46:51;;;;;;;;;;;;;;;;;;2207332;67;1134;-70
2022/03/14 00:49:27;;;;;;;;;;;;;;;;;;2208558;59;1591;-70
2022/03/14 00:52:00;;;;;;;;;;;;;;;;;;2206839;67;1219;-70
2022/03/14 00:54:33;;;;;;;;;;;;;;;;;;2208652;59;2030;-70
2022/03/14 00:57:06;;;;;;;;;;;;;;;;;;2209130;59;1130;-70
2022/03/14 00:59:39;;;;;;;;;;;;;;;;;;2208139;67;1939;-70
2022/03/14 01:02:13;;;;;;;;;;;;;;;;;;2208606;67;1093;-70
2022/03/14 01:04:48;;;;;;;;;;;;;;;;;;2208921;67;1290;-70
2022/03/14 01:07:22;;;;;;;;;;;;;;;;;;2208852;59;1225;-70
2022/03/14 01:09:55;;;;;;;;;;;;;;;;;;2207753;59;1690;-70
2022/03/14 01:12:29;;;;;;;;;;;;;;;;;;2208615;59;1145;-70
2022/03/14 01:15:02;;;;;;;;;;;;;;;;;;2208365;59;1233;-70
2022/03/14 01:17:36;;;;;;;;;;;;;;;;;;2208416;59;1248;-70
2022/03/14 01:20:12;;;;;;;;;;;;;;;;;;2208306;59;1975;-70
2022/03/14 01:22:45;;;;;;;;;;;;;;;;;;2208714;67;1113;-70
2022/03/14 01:25:18;;;;;;;;;;;;;;;;;;2207548;59;1236;-70
2022/03/14 01:27:52;;;;;;;;;;;;;;;;;;2208728;59;1742;-71
2022/03/14 01:30:25;;;;;;;;;;;;;;;;;;2208579;67;1153;-70
2022/03/14 01:32:59;;;;;;;;;;;;;;;;;;2209266;67;1145;-70
2022/03/14 01:35:36;;;;;;;;;;;;;;;;;;2208849;67;1180;-70
2022/03/14 01:38:09;;;;;;;;;;;;;;;;;;2209167;59;1161;-70
2022/03/14 01:40:43;;;;;;;;;;;;;;;;;;2209312;67;1937;-70
2022/03/14 01:43:16;;;;;;;;;;;;;;;;;;2209418;59;1273;-70
2022/03/14 01:45:50;;;;;;;;;;;;;;;;;;2209326;67;1263;-70
2022/03/14 01:48:23;;;;;;;;;;;;;;;;;;2208285;59;1674;-70
2022/03/14 01:50:59;;;;;;;;;;;;;;;;;;2208751;59;1977;-70
2022/03/14 01:53:32;;;;;;;;;;;;;;;;;;2209813;67;2016;-69
2022/03/14 01:56:07;;;;;;;;;;;;;;;;;;2209199;59;1304;-70
2022/03/14 01:58:40;;;;;;;;;;;;;;;;;;2209394;67;1194;-70
2022/03/14 02:01:13;;;;;;;;;;;;;;;;;;2208988;67;1995;-70
2022/03/14 02:03:47;;;;;;;;;;;;;;;;;;2209496;59;1176;-70
2022/03/14 02:06:23;;;;;;;;;;;;;;;;;;2209503;59;1236;-69
2022/03/14 02:08:57;;;;;;;;;;;;;;;;;;2207891;59;1598;-70
2022/03/14 02:11:30;;;;;;;;;;;;;;;;;;2210234;67;1146;-70
2022/03/14 02:14:03;;;;;;;;;;;;;;;;;;2208989;67;1166;-71
2022/03/14 02:16:36;;;;;;;;;;;;;;;;;;2209389;67;1195;-70
2022/03/14 02:19:10;;;;;;;;;;;;;;;;;;2209420;67;1252;-70
2022/03/14 02:21:46;;;;;;;;;;;;;;;;;;2209105;67;1938;-70
2022/03/14 02:24:19;;;;;;;;;;;;;;;;;;2207348;67;1120;-69
2022/03/14 02:26:52;;;;;;;;;;;;;;;;;;2208280;59;1207;-70
2022/03/14 02:29:26;;;;;;;;;;;;;;;;;;2209576;59;1897;-70
2022/03/14 02:31:59;;;;;;;;;;;;;;;;;;2208697;59;1129;-70
2022/03/14 02:34:32;;;;;;;;;;;;;;;;;;2209700;67;1185;-70
2022/03/14 02:37:08;;;;;;;;;;;;;;;;;;2209613;67;1247;-70
2022/03/14 02:39:42;;;;;;;;;;;;;;;;;;2209278;59;1940;-70
2022/03/14 02:42:15;;;;;;;;;;;;;;;;;;2208739;67;1141;-70
2022/03/14 02:44:48;;;;;;;;;;;;;;;;;;2209097;67;1350;-70
2022/03/14 02:47:22;;;;;;;;;;;;;;;;;;2208647;59;1094;-70
2022/03/14 02:49:55;;;;;;;;;;;;;;;;;;2209656;59;1849;-70
2022/03/14 02:52:31;;;;;;;;;;;;;;;;;;2209379;59;1172;-70
2022/03/14 02:55:04;;;;;;;;;;;;;;;;;;2209293;59;2040;-70
2022/03/14 02:57:37;;;;;;;;;;;;;;;;;;2209513;67;1238;-70
2022/03/14 03:00:11;;;;;;;;;;;;;;;;;;2209507;67;2000;-70
2022/03/14 03:02:44;;;;;;;;;;;;;;;;;;2209817;67;1185;-70
2022/03/14 03:05:18;;;;;;;;;;;;;;;;;;2209111;59;1154;-69
2022/03/14 03:07:56;;;;;;;;;;;;;;;;;;2208755;59;1570;-70
2022/03/14 03:10:29;;;;;;;;;;;;;;;;;;2209250;67;1098;-69
2022/03/14 03:13:03;;;;;;;;;;;;;;;;;;2208864;59;1180;-70
2022/03/14 03:15:37;;;;;;;;;;;;;;;;;;2209312;67;1296;-70
2022/03/14 03:18:11;;;;;;;;;;;;;;;;;;2209998;67;1290;-70
2022/03/14 03:20:45;;;;;;;;;;;;;;;;;;2208733;59;1977;-69
2022/03/14 03:23:21;;;;;;;;;;;;;;;;;;2209488;60;1140;-69
2022/03/14 03:25:54;;;;;;;;;;;;;;;;;;2207329;67;1242;-71
2022/03/14 03:28:27;;;;;;;;;;;;;;;;;;2205542;59;1629;-70
2022/03/14 03:31:00;;;;;;;;;;;;;;;;;;2210431;59;1229;-70
2022/03/14 03:33:34;;;;;;;;;;;;;;;;;;2209748;67;1190;-69
2022/03/14 03:36:07;;;;;;;;;;;;;;;;;;2209939;67;1255;-69
2022/03/14 03:38:44;;;;;;;;;;;;;;;;;;2209709;67;1236;-69
2022/03/14 03:41:17;;;;;;;;;;;;;;;;;;2209170;67;1987;-69
2022/03/14 03:43:50;;;;;;;;;;;;;;;;;;2209438;59;1144;-69
2022/03/14 03:46:24;;;;;;;;;;;;;;;;;;2209240;67;1256;-69
2022/03/14 03:48:57;;;;;;;;;;;;;;;;;;2208145;59;1688;-69
2022/03/14 03:51:30;;;;;;;;;;;;;;;;;;2208919;59;1850;-69
2022/03/14 03:54:06;;;;;;;;;;;;;;;;;;2209550;59;2062;-69
2022/03/14 03:56:41;;;;;;;;;;;;;;;;;;2209183;67;1117;-69
2022/03/14 03:59:15;;;;;;;;;;;;;;;;;;2209212;67;1302;-70
2022/03/14 04:01:48;;;;;;;;;;;;;;;;;;2208635;67;1936;-69
2022/03/14 04:04:22;;;;;;;;;;;;;;;;;;2210066;67;1141;-69
2022/03/14 04:06:57;;;;;;;;;;;;;;;;;;2207867;59;1325;-70
2022/03/14 04:09:33;;;;;;;;;;;;;;;;;;2207790;59;1556;-70
2022/03/14 04:12:06;;;;;;;;;;;;;;;;;;2207839;59;1240;-69
2022/03/14 04:14:40;;;;;;;;;;;;;;;;;;2208210;59;1192;-69
2022/03/14 04:17:13;;;;;;;;;;;;;;;;;;2207822;67;1187;-69
2022/03/14 04:19:48;;;;;;;;;;;;;;;;;;2208989;67;1243;-69
2022/03/14 04:22:21;;;;;;;;;;;;;;;;;;2208546;67;1939;-72
2022/03/14 04:24:57;;;;;;;;;;;;;;;;;;2206964;59;1177;-72
2022/03/14 04:27:30;;;;;;;;;;;;;;;;;;2207950;67;1280;-72
2022/03/14 04:30:04;;;;;;;;;;;;;;;;;;2207720;59;2088;-72
2022/03/14 04:32:37;;;;;;;;;;;;;;;;;;2209408;59;1199;-72
2022/03/14 04:35:11;;;;;;;;;;;;;;;;;;2209845;67;1166;-72
2022/03/14 04:37:44;;;;;;;;;;;;;;;;;;2208020;59;1315;-72
2022/03/14 04:40:20;;;;;;;;;;;;;;;;;;2209218;59;1212;-72
2022/03/14 04:42:53;;;;;;;;;;;;;;;;;;2208811;59;1816;-72
2022/03/14 04:45:27;;;;;;;;;;;;;;;;;;2208910;67;1250;-72
2022/03/14 04:48:02;;;;;;;;;;;;;;;;;;2207443;59;1773;-72
2022/03/14 04:50:36;;;;;;;;;;;;;;;;;;2208509;59;1866;-72
2022/03/14 04:53:09;;;;;;;;;;;;;;;;;;2204986;67;1735;-72
2022/03/14 04:55:45;;;;;;;;;;;;;;;;;;2209287;59;2285;-72
2022/03/14 04:58:18;;;;;;;;;;;;;;;;;;2209160;67;1235;-72
2022/03/14 05:00:53;;;;;;;;;;;;;;;;;;2208296;59;1925;-72
2022/03/14 05:03:27;;;;;;;;;;;;;;;;;;2209399;59;1287;-71
2022/03/14 05:06:00;;;;;;;;;;;;;;;;;;2209952;67;1077;-72
2022/03/14 05:08:33;;;;;;;;;;;;;;;;;;2209800;53;3659;-73
2022/03/14 05:11:11;;;;;;;;;;;;;;;;;;2208820;59;1400;-73
2022/03/14 05:13:44;;;;;;;;;;;;;;;;;;2210016;59;1208;-73
2022/03/14 05:16:17;;;;;;;;;;;;;;;;;;2209478;59;1233;-73
2022/03/14 05:18:50;;;;;;;;;;;;;;;;;;2208731;67;1240;-73
2022/03/14 05:21:23;;;;;;;;;;;;;;;;;;2205835;67;1933;-73
2022/03/14 05:23:57;;;;;;;;;;;;;;;;;;2206041;67;1265;-73
2022/03/14 05:26:33;;;;;;;;;;;;;;;;;;2206236;59;1151;-73
2022/03/14 05:29:06;;;;;;;;;;;;;;;;;;2205757;59;1903;-73
2022/03/14 05:31:39;;;;;;;;;;;;;;;;;;2206432;67;1267;-73
2022/03/14 05:34:12;;;;;;;;;;;;;;;;;;2205276;67;2072;-73
2022/03/14 05:36:45;;;;;;;;;;;;;;;;;;2206961;67;1145;-73
2022/03/14 05:39:19;;;;;;;;;;;;;;;;;;2205981;67;1196;-73
2022/03/14 05:42:01;;;;;;;;;;;;;;;;;;2204962;59;1932;-74
2022/03/14 05:44:35;;;;;;;;;;;;;;;;;;2204934;59;1574;-73
2022/03/14 05:47:08;;;;;;;;;;;;;;;;;;2205445;67;1202;-73
2022/03/14 05:49:41;;;;;;;;;;;;;;;;;;2206113;59;1777;-73
2022/03/14 05:52:14;;;;;;;;;;;;;;;;;;2205721;59;1257;-73
2022/03/14 05:54:47;;;;;;;;;;;;;;;;;;2205696;59;1915;-73
2022/03/14 05:57:23;;;;;;;;;;;;;;;;;;2204885;67;1320;-73
2022/03/14 05:59:57;;;;;;;;;;;;;;;;;;2204905;67;1286;-73
2022/03/14 06:02:30;;;;;;;;;;;;;;;;;;2206426;59;1924;-73
2022/03/14 06:05:03;;;;;;;;;;;;;;;;;;2206821;67;1158;-73
2022/03/14 06:07:36;;;;;;;;;;;;;;;;;;2202471;67;1573;-73
2022/03/14 06:10:15;;;;;;;;;;;;;;;;;;2204981;59;1693;-73
2022/03/14 06:12:51;;;;;;;;;;;;;;;;;;2206401;59;1701;-73
2022/03/14 06:15:24;;;;;;;;;;;;;;;;;;2206042;59;1661;-73
2022/03/14 06:17:57;;;;;;;;;;;;;;;;;;2205547;67;1363;-73
2022/03/14 06:20:31;;;;;;;;;;;;;;;;;;2206783;67;1277;-73
2022/03/14 06:23:04;;;;;;;;;;;;;;;;;;2207618;67;1929;-73
2022/03/14 06:25:39;;;;;;;;;;;;;;;;;;2205818;59;1709;-73
2022/03/14 06:28:15;;;;;;;;;;;;;;;;;;2200985;59;1755;-73
2022/03/14 06:30:49;;;;;;;;;;;;;;;;;;2206609;67;1110;-73
2022/03/14 06:33:22;;;;;;;;;;;;;;;;;;2206410;59;1769;-73
2022/03/14 06:35:55;;;;;;;;;;;;;;;;;;2206658;67;1347;-73
2022/03/14 06:38:28;;;;;;;;;;;;;;;;;;2207178;67;1345;-73
2022/03/14 06:41:02;;;;;;;;;;;;;;;;;;2206979;67;1939;-73
2022/03/14 06:43:39;;;;;;;;;;;;;;;;;;2206100;59;1295;-73
2022/03/14 06:46:13;;;;;;;;;;;;;;;;;;2207773;67;1254;-73
2022/03/14 06:48:46;;;;;;;;;;;;;;;;;;2206285;59;2164;-73
2022/03/14 06:51:21;;;;;;;;;;;;;;;;;;2206672;67;1873;-73
2022/03/14 06:53:54;;;;;;;;;;;;;;;;;;2205481;67;2059;-73
2022/03/14 06:56:27;;;;;;;;;;;;;;;;;;2204992;67;1246;-73
2022/03/14 06:59:03;;;;;;;;;;;;;;;;;;2205768;59;1696;-73
2022/03/14 07:01:36;;;;;;;;;;;;;;;;;;2205215;67;1929;-73
2022/03/14 07:04:09;;;;;;;;;;;;;;;;;;2205255;59;1225;-73
2022/03/14 07:06:43;;;;;;;;;;;;;;;;;;2205374;59;1704;-73
2022/03/14 07:09:16;;;;;;;;;;;;;;;;;;2206339;59;1734;-73
2022/03/14 07:11:51;;;;;;;;;;;;;;;;;;2206522;59;1905;-73
2022/03/14 07:14:28;;;;;;;;;;;;;;;;;;2207078;67;1221;-73
2022/03/14 07:17:01;;;;;;;;;;;;;;;;;;2205613;67;1102;-73
2022/03/14 07:19:34;;;;;;;;;;;;;;;;;;2205456;59;1248;-73
2022/03/14 07:22:07;;;;;;;;;;;;;;;;;;2205187;59;1927;-73
2022/03/14 07:24:40;;;;;;;;;;;;;;;;;;2205609;67;1034;-73
2022/03/14 07:27:13;;;;;;;;;;;;;;;;;;2206122;67;1158;-73
2022/03/14 07:29:49;;;;;;;;;;;;;;;;;;2205313;59;1752;-74
2022/03/14 07:32:23;;;;;;;;;;;;;;;;;;2205127;67;1169;-73
2022/03/14 07:34:57;;;;;;;;;;;;;;;;;;2205665;59;1255;-73
2022/03/14 07:37:30;;;;;;;;;;;;;;;;;;2205484;59;1738;-73
2022/03/14 07:40:03;;;;;;;;;;;;;;;;;;2206286;67;1231;-73
2022/03/14 07:42:41;;;;;;;;;;;;;;;;;;2205226;59;1931;-73
2022/03/14 07:45:18;;;;;;;;;;;;;;;;;;2202444;67;1641;-74
2022/03/14 07:47:51;;;;;;;;;;;;;;;;;;2202042;59;2068;-74
2022/03/14 07:50:25;;;;;;;;;;;;;;;;;;2205095;59;2078;-73
2022/03/14 07:52:58;;;;;;;;;;;;;;;;;;2204537;59;1106;-73
2022/03/14 07:55:32;;;;;;;;;;;;;;;;;;2205099;59;2023;-73
2022/03/14 07:58:05;;;;;;;;;;;;;;;;;;2205357;67;1308;-73
2022/03/14 08:00:41;;;;;;;;;;;;;;;;;;2205973;67;1229;-73
2022/03/14 08:03:16;;;;;;;;;;;;;;;;;;2205792;67;1933;-73
2022/03/14 08:05:58;;;;;;;;;;;;;;;;;;2206406;67;1211;-73
2022/03/14 08:08:31;;;;;;;;;;;;;;;;;;2205324;59;1772;-73
2022/03/14 08:11:05;;;;;;;;;;;;;;;;;;2205723;59;1577;-73
2022/03/14 08:13:38;;;;;;;;;;;;;;;;;;2205260;67;1273;-73
2022/03/14 08:16:14;;;;;;;;;;;;;;;;;;2206048;67;1217;-73
2022/03/14 08:18:47;;;;;;;;;;;;;;;;;;2205509;67;1215;-73
2022/03/14 08:21:21;;;;;;;;;;;;;;;;;;2205882;67;1310;-74
2022/03/14 08:23:54;;;;;;;;;;;;;;;;;;2205691;59;1979;-73
2022/03/14 08:26:27;;;;;;;;;;;;;;;;;;2205346;59;1109;-73
2022/03/14 08:29:00;;;;;;;;;;;;;;;;;;2205411;59;1708;-74
2022/03/14 08:31:36;;;;;;;;;;;;;;;;;;2204853;67;1169;-73
2022/03/14 08:34:10;;;;;;;;;;;;;;;;;;2205540;59;1107;-73
2022/03/14 08:36:43;;;;;;;;;;;;;;;;;;2206282;59;1359;-73
2022/03/14 08:39:16;;;;;;;;;;;;;;;;;;2205887;59;1532;-73
2022/03/14 08:41:49;;;;;;;;;;;;;;;;;;2205949;59;1924;-73
2022/03/14 08:44:22;;;;;;;;;;;;;;;;;;2206115;67;1211;-74
2022/03/14 08:46:58;;;;;;;;;;;;;;;;;;2205850;59;1165;-74
2022/03/14 08:49:31;;;;;;;;;;;;;;;;;;2206038;59;1705;-73
2022/03/14 08:52:04;;;;;;;;;;;;;;;;;;2205386;67;1217;-73
2022/03/14 08:54:38;;;;;;;;;;;;;;;;;;2206487;59;1914;-74
2022/03/14 08:57:11;;;;;;;;;;;;;;;;;;2206633;67;1212;-73
2022/03/14 08:59:44;;;;;;;;;;;;;;;;;;2206017;59;1193;-73
2022/03/14 09:02:20;;;;;;;;;;;;;;;;;;2205669;67;1935;-74
2022/03/14 09:04:53;;;;;;;;;;;;;;;;;;2205750;67;1078;-73
2022/03/14 09:07:27;;;;;;;;;;;;;;;;;;2206320;59;1620;-73
2022/03/14 09:10:03;;;;;;;;;;;;;;;;;;2205988;59;1934;-74
2022/03/14 09:12:38;;;;;;;;;;;;;;;;;;2206212;67;1222;-73
2022/03/14 09:15:12;;;;;;;;;;;;;;;;;;2206472;59;1186;-73
2022/03/14 09:17:56;;;;;;;;;;;;;;;;;;2205913;67;1212;-74
2022/03/14 09:20:30;;;;;;;;;;;;;;;;;;2204463;67;1258;-73
2022/03/14 09:23:04;;;;;;;;;;;;;;;;;;2204949;67;1929;-73
2022/03/14 09:25:37;;;;;;;;;;;;;;;;;;2206745;59;2294;-74
2022/03/14 09:28:11;;;;;;;;;;;;;;;;;;2205674;59;1797;-73
2022/03/14 09:30:44;;;;;;;;;;;;;;;;;;2205053;59;1694;-74
2022/03/14 09:33:21;;;;;;;;;;;;;;;;;;2204762;67;1264;-74
2022/03/14 09:35:54;;;;;;;;;;;;;;;;;;2206786;59;1235;-74
2022/03/14 09:38:29;;;;;;;;;;;;;;;;;;2206819;67;1257;-74
2022/03/14 09:41:03;;;;;;;;;;;;;;;;;;2206696;67;1213;-74
2022/03/14 09:43:41;;;;;;;;;;;;;;;;;;2207254;67;1985;-74
2022/03/14 09:46:14;;;;;;;;;;;;;;;;;;2202544;67;1252;-74
2022/03/14 09:48:52;;;;;;;;;;;;;;;;;;2205776;59;1836;-74
2022/03/14 09:51:26;;;;;;;;;;;;;;;;;;2205959;67;1159;-74
2022/03/14 09:54:00;;;;;;;;;;;;;;;;;;2203050;67;2116;-73
2022/03/14 09:56:33;;;;;;;;;;;;;;;;;;2206529;67;1137;-73
2022/03/14 09:59:07;;;;;;;;;;;;;;;;;;2206797;67;1279;-73
2022/03/14 10:01:40;;;;;;;;;;;;;;;;;;2206886;67;1192;-74
2022/03/14 10:04:16;;;;;;;;;;;;;;;;;;2207509;67;1990;-74
2022/03/14 10:06:50;;;;;;;;;;;;;;;;;;2205839;59;1578;-74
2022/03/14 10:09:23;;;;;;;;;;;;;;;;;;2206616;59;1607;-73
2022/03/14 10:11:57;;;;;;;;;;;;;;;;;;2205764;67;1201;-73
2022/03/14 10:14:30;;;;;;;;;;;;;;;;;;2207758;59;1200;-74
2022/03/14 10:17:03;;;;;;;;;;;;;;;;;;2206916;67;1157;-74
2022/03/14 10:19:39;;;;;;;;;;;;;;;;;;2207813;59;1262;-73
2022/03/14 10:22:18;;;;;;;;;;;;;;;;;;2203050;67;1841;-74
2022/03/14 10:24:54;;;;;;;;;;;;;;;;;;2206097;59;2089;-74
2022/03/14 10:27:28;;;;;;;;;;;;;;;;;;2206142;67;1124;-74
2022/03/14 10:30:01;;;;;;;;;;;;;;;;;;2204865;59;1992;-74
2022/03/14 10:32:37;;;;;;;;;;;;;;;;;;2204624;67;1233;-74
2022/03/14 10:35:13;;;;;;;;;;;;;;;;;;2205666;67;1103;-73
2022/03/14 10:37:58;;;;;;;;;;;;;;;;;;2206120;59;1232;-73
2022/03/14 10:40:32;;;;;;;;;;;;;;;;;;2205426;67;1082;-74
2022/03/14 10:43:08;;;;;;;;;;;;;;;;;;2206531;67;1942;-74
2022/03/14 10:45:42;;;;;;;;;;;;;;;;;;2205876;59;1142;-74
2022/03/14 10:48:15;;;;;;;;;;;;;;;;;;2206146;59;1757;-74
2022/03/14 10:50:51;;;;;;;;;;;;;;;;;;2204634;67;1264;-74
2022/03/14 10:53:24;;;;;;;;;;;;;;;;;;2206128;67;2252;-74
2022/03/14 10:56:00;;;;;;;;;;;;;;;;;;2204815;60;1116;-74
2022/03/14 10:58:34;;;;;;;;;;;;;;;;;;2206852;67;1224;-74
2022/03/14 11:01:09;;;;;;;;;;;;;;;;;;2204744;67;1119;-74
2022/03/14 11:03:45;;;;;;;;;;;;;;;;;;2205500;67;1940;-73
2022/03/14 11:06:21;;;;;;;;;;;;;;;;;;2205225;59;1178;-74
2022/03/14 11:08:54;;;;;;;;;;;;;;;;;;2207803;53;2687;-69
2022/03/14 11:11:27;;;;;;;;;;;;;;;;;;2207486;59;1089;-70
2022/03/14 11:14:00;;;;;;;;;;;;;;;;;;2208400;59;1249;-70
2022/03/14 11:16:34;;;;;;;;;;;;;;;;;;2209154;67;1196;-70
2022/03/14 11:19:09;;;;;;;;;;;;;;;;;;2208160;59;1438;-70
2022/03/14 11:21:45;;;;;;;;;;;;;;;;;;2205368;67;1188;-70
2022/03/14 11:24:19;;;;;;;;;;;;;;;;;;2205458;59;2048;-70
2022/03/14 11:26:53;;;;;;;;;;;;;;;;;;2205942;59;1204;-70
2022/03/14 11:29:27;;;;;;;;;;;;;;;;;;2205695;59;1816;-70
2022/03/14 11:32:01;;;;;;;;;;;;;;;;;;2200815;67;1213;-70
2022/03/14 11:34:34;;;;;;;;;;;;;;;;;;2202895;67;1389;-70
2022/03/14 11:37:10;;;;;;;;;;;;;;;;;;2206118;67;1248;-69
2022/03/14 11:39:43;;;;;;;;;;;;;;;;;;2206141;67;1284;-70
2022/03/14 11:42:18;;;;;;;;;;;;;;;;;;2206478;67;1247;-70
2022/03/14 11:44:52;;;;;;;;;;;;;;;;;;2205052;67;1978;-70
2022/03/14 11:47:26;;;;;;;;;;;;;;;;;;2205579;59;1106;-69
2022/03/14 11:50:00;;;;;;;;;;;;;;;;;;2205233;59;1729;-70
2022/03/14 11:52:40;;;;;;;;;;;;;;;;;;2205871;67;1194;-70
2022/03/14 11:55:21;;;;;;;;;;;;;;;;;;2206091;67;2293;-70
2022/03/14 11:57:55;;;;;;;;;;;;;;;;;;2207630;67;1137;-70
2022/03/14 12:00:35;;;;;;;;;;;;;;;;;;2205977;67;1301;-70
2022/03/14 12:03:09;;;;;;;;;;;;;;;;;;2204809;67;1981;-70
2022/03/14 12:05:52;;;;;;;;;;;;;;;;;;2205480;67;1052;-69
2022/03/14 12:08:44;;;;;;;;;;;;;;;;;;2205242;59;1735;-69
2022/03/14 12:11:40;;;;;;;;;;;;;;;;;;2205437;59;1208;-70
2022/03/14 12:14:15;;;;;;;;;;;;;;;;;;2206364;59;1267;-69
2022/03/14 12:16:48;;;;;;;;;;;;;;;;;;2206238;59;1161;-69
2022/03/14 12:19:28;;;;;;;;;;;;;;;;;;2206207;67;1265;-70
2022/03/14 12:22:03;;;;;;;;;;;;;;;;;;2205218;67;1209;-69
2022/03/14 12:24:46;;;;;;;;;;;;;;;;;;2206669;59;1998;-70
2022/03/14 12:27:23;;;;;;;;;;;;;;;;;;2202486;67;1142;-69
2022/03/14 12:29:57;;;;;;;;;;;;;;;;;;2206487;59;1872;-70
2022/03/14 12:32:34;;;;;;;;;;;;;;;;;;2205944;67;1233;-68
2022/03/14 12:35:09;;;;;;;;;;;;;;;;;;2206121;67;1268;-69
2022/03/14 12:37:47;;;;;;;;;;;;;;;;;;2202587;67;1309;-69
2022/03/14 12:40:38;;;;;;;;;;;;;;;;;;2205219;67;1252;-69
2022/03/14 12:43:15;;;;;;;;;;;;;;;;;;2203832;59;2332;-69
2022/03/14 12:45:50;;;;;;;;;;;;;;;;;;2202729;59;1315;-69
2022/03/14 12:48:24;;;;;;;;;;;;;;;;;;2206800;59;1769;-69
2022/03/14 12:51:04;;;;;;;;;;;;;;;;;;2205197;59;1240;-69
2022/03/14 12:53:54;;;;;;;;;;;;;;;;;;2206108;67;2265;-69
2022/03/14 12:56:28;;;;;;;;;;;;;;;;;;2206317;67;1148;-69
2022/03/14 12:59:06;;;;;;;;;;;;;;;;;;2206178;67;1269;-69
2022/03/14 13:01:40;;;;;;;;;;;;;;;;;;2206498;67;1212;-69
2022/03/14 13:04:17;;;;;;;;;;;;;;;;;;2206757;67;1938;-69
2022/03/14 13:06:51;;;;;;;;;;;;;;;;;;2206787;67;1156;-69
2022/03/14 13:09:30;;;;;;;;;;;;;;;;;;2205735;59;1865;-69
2022/03/14 13:12:05;;;;;;;;;;;;;;;;;;2205402;59;1241;-69
2022/03/14 13:14:43;;;;;;;;;;;;;;;;;;2205446;59;1101;-70
2022/03/14 13:17:23;;;;;;;;;;;;;;;;;;2206051;67;1232;-71
2022/03/14 13:19:56;;;;;;;;;;;;;;;;;;2206493;59;1336;-69
2022/03/14 13:22:30;;;;;;;;;;;;;;;;;;2206313;67;1239;-69
2022/03/14 13:25:03;;;;;;;;;;;;;;;;;;2205609;59;1924;-71
2022/03/14 13:27:36;;;;;;;;;;;;;;;;;;2206339;67;1243;-69
2022/03/14 13:30:13;;;;;;;;;;;;;;;;;;2202140;59;1877;-71
2022/03/14 13:32:47;;;;;;;;;;;;;;;;;;2202458;67;1193;-69
2022/03/14 13:35:20;;;;;;;;;;;;;;;;;;2205851;67;1273;-72
2022/03/14 13:37:54;;;;;;;;;;;;;;;;;;2205087;59;1619;-69
2022/03/14 13:40:27;;;;;;;;;;;;;;;;;;2205559;59;1301;-71
2022/03/14 13:43:01;;;;;;;;;;;;;;;;;;2206763;67;1162;-69
2022/03/14 13:45:37;;;;;;;;;;;;;;;;;;2205460;67;1943;-69
2022/03/14 13:48:10;;;;;;;;;;;;;;;;;;2205808;67;1247;-69
2022/03/14 13:50:46;;;;;;;;;;;;;;;;;;2202129;59;1978;-71
2022/03/14 13:53:23;;;;;;;;;;;;;;;;;;2205911;59;2333;-69
2022/03/14 13:55:56;;;;;;;;;;;;;;;;;;2205220;67;1163;-69
2022/03/14 13:58:30;;;;;;;;;;;;;;;;;;2206419;67;1166;-69
2022/03/14 14:01:06;;;;;;;;;;;;;;;;;;2205073;59;1161;-69
2022/03/14 14:03:39;;;;;;;;;;;;;;;;;;2204842;59;1940;-70
2022/03/14 14:06:16;;;;;;;;;;;;;;;;;;2202335;67;1296;-69
2022/03/14 14:08:49;;;;;;;;;;;;;;;;;;2205506;59;2089;-69
2022/03/14 14:11:26;;;;;;;;;;;;;;;;;;2201107;59;1604;-69
2022/03/14 14:13:59;;;;;;;;;;;;;;;;;;2206733;67;1245;-69
2022/03/14 14:16:39;;;;;;;;;;;;;;;;;;2205775;59;1105;-69
2022/03/14 14:19:14;;;;;;;;;;;;;;;;;;2205427;67;1256;-69
2022/03/14 14:21:55;;;;;;;;;;;;;;;;;;2206355;67;1078;-70
2022/03/14 14:24:29;;;;;;;;;;;;;;;;;;2205585;59;1934;-70
2022/03/14 14:27:02;;;;;;;;;;;;;;;;;;2206361;67;1260;-70
2022/03/14 14:29:45;;;;;;;;;;;;;;;;;;2205378;59;1666;-70
2022/03/14 14:32:22;;;;;;;;;;;;;;;;;;2204979;59;1086;-69
2022/03/14 14:34:57;;;;;;;;;;;;;;;;;;2206962;67;1247;-70
2022/03/14 14:37:30;;;;;;;;;;;;;;;;;;2205148;67;1317;-69
2022/03/14 14:40:04;;;;;;;;;;;;;;;;;;2205111;67;1251;-70
2022/03/14 14:42:37;;;;;;;;;;;;;;;;;;2201722;67;1414;-69
2022/03/14 14:45:10;;;;;;;;;;;;;;;;;;2205003;59;1976;-69
2022/03/14 14:47:46;;;;;;;;;;;;;;;;;;2201882;67;1106;-69
2022/03/14 14:50:20;;;;;;;;;;;;;;;;;;2204539;59;1783;-70
2022/03/14 14:52:54;;;;;;;;;;;;;;;;;;2205735;59;1102;-70
2022/03/14 14:55:27;;;;;;;;;;;;;;;;;;2205387;59;2071;-70
2022/03/14 14:58:00;;;;;;;;;;;;;;;;;;2206513;67;1280;-69
2022/03/14 15:00:34;;;;;;;;;;;;;;;;;;2205270;59;1806;-70
2022/03/14 15:03:11;;;;;;;;;;;;;;;;;;2206032;67;1150;-69
2022/03/14 15:05:45;;;;;;;;;;;;;;;;;;2205968;67;1924;-71
2022/03/14 15:08:19;;;;;;;;;;;;;;;;;;2205726;59;2140;-71
2022/03/14 15:10:52;;;;;;;;;;;;;;;;;;2205864;59;1567;-70
2022/03/14 15:13:25;;;;;;;;;;;;;;;;;;2206129;59;1677;-70
2022/03/14 15:15:58;;;;;;;;;;;;;;;;;;2206636;67;1109;-71
2022/03/14 15:18:34;;;;;;;;;;;;;;;;;;2206034;67;1238;-70
2022/03/14 15:21:08;;;;;;;;;;;;;;;;;;2205924;67;1264;-70
2022/03/14 15:23:41;;;;;;;;;;;;;;;;;;2205747;59;1951;-71
2022/03/14 15:26:14;;;;;;;;;;;;;;;;;;2205813;67;1941;-70
2022/03/14 15:28:47;;;;;;;;;;;;;;;;;;2205001;59;2036;-70
2022/03/14 15:31:21;;;;;;;;;;;;;;;;;;2206384;59;1243;-70
2022/03/14 15:33:57;;;;;;;;;;;;;;;;;;2205846;67;1248;-70
2022/03/14 15:36:31;;;;;;;;;;;;;;;;;;2204936;67;1258;-70
2022/03/14 15:39:04;;;;;;;;;;;;;;;;;;2205499;67;1304;-70
2022/03/14 15:41:37;;;;;;;;;;;;;;;;;;2205494;67;1108;-70
2022/03/14 15:44:10;;;;;;;;;;;;;;;;;;2205576;67;1988;-70
2022/03/14 15:46:44;;;;;;;;;;;;;;;;;;2206670;59;1214;-70
2022/03/14 15:49:20;;;;;;;;;;;;;;;;;;2205809;59;1757;-70
2022/03/14 15:51:54;;;;;;;;;;;;;;;;;;2206163;67;1198;-70
2022/03/14 15:54:27;;;;;;;;;;;;;;;;;;2205444;59;2109;-70
2022/03/14 15:57:01;;;;;;;;;;;;;;;;;;2206337;67;1126;-70
2022/03/14 15:59:35;;;;;;;;;;;;;;;;;;2205525;59;1234;-70
2022/03/14 16:02:09;;;;;;;;;;;;;;;;;;2202600;67;1315;-70
2022/03/14 16:04:45;;;;;;;;;;;;;;;;;;2206423;60;1992;-70
2022/03/14 16:07:18;;;;;;;;;;;;;;;;;;2206890;67;1317;-70
2022/03/14 16:09:51;;;;;;;;;;;;;;;;;;2206063;59;1766;-69
2022/03/14 16:12:24;;;;;;;;;;;;;;;;;;2202244;67;1143;-70
2022/03/14 16:14:57;;;;;;;;;;;;;;;;;;2205642;59;1173;-70
2022/03/14 16:17:37;;;;;;;;;;;;;;;;;;2205856;67;1307;-70
2022/03/14 16:20:16;;;;;;;;;;;;;;;;;;2204418;59;1246;-70
2022/03/14 16:22:53;;;;;;;;;;;;;;;;;;2206220;59;1113;-70
2022/03/14 16:25:28;;;;;;;;;;;;;;;;;;2206819;59;1973;-70
2022/03/14 16:28:01;;;;;;;;;;;;;;;;;;2205964;59;1067;-70
2022/03/14 16:30:34;;;;;;;;;;;;;;;;;;2205765;59;1905;-70
2022/03/14 16:33:11;;;;;;;;;;;;;;;;;;2206021;67;1233;-69
2022/03/14 16:35:52;;;;;;;;;;;;;;;;;;2206816;67;1164;-70
2022/03/14 16:38:26;;;;;;;;;;;;;;;;;;2205831;67;1233;-70
2022/03/14 16:41:00;;;;;;;;;;;;;;;;;;2205453;59;1222;-70
2022/03/14 16:43:34;;;;;;;;;;;;;;;;;;2206683;67;1181;-70
2022/03/14 16:46:08;;;;;;;;;;;;;;;;;;2202391;67;1935;-70
2022/03/14 16:48:41;;;;;;;;;;;;;;;;;;2206058;59;1607;-70
2022/03/14 16:51:20;;;;;;;;;;;;;;;;;;2206386;59;1182;-70
2022/03/14 16:53:54;;;;;;;;;;;;;;;;;;2206445;59;1726;-70
2022/03/14 16:56:28;;;;;;;;;;;;;;;;;;2207087;67;1291;-70
2022/03/14 16:59:03;;;;;;;;;;;;;;;;;;2207893;59;1256;-70
2022/03/14 17:01:36;;;;;;;;;;;;;;;;;;2205548;67;1091;-70
2022/03/14 17:04:09;;;;;;;;;;;;;;;;;;2205835;59;1188;-70
2022/03/14 17:06:45;;;;;;;;;;;;;;;;;;2205877;67;1937;-70
2022/03/14 17:09:19;;;;;;;;;;;;;;;;;;2206644;53;3555;-69
2022/03/14 17:11:52;;;;;;;;;;;;;;;;;;2210244;59;1156;-69
2022/03/14 17:14:25;;;;;;;;;;;;;;;;;;2210128;59;1242;-69
2022/03/14 17:16:58;;;;;;;;;;;;;;;;;;2210635;59;1169;-69
2022/03/14 17:19:31;;;;;;;;;;;;;;;;;;2207934;59;1277;-69
2022/03/14 17:22:07;;;;;;;;;;;;;;;;;;2211400;67;1089;-69
2022/03/14 17:24:41;;;;;;;;;;;;;;;;;;2211493;59;2020;-69
2022/03/14 17:27:14;;;;;;;;;;;;;;;;;;2211453;59;1937;-69
2022/03/14 17:29:47;;;;;;;;;;;;;;;;;;2211335;59;1684;-69
2022/03/14 17:32:20;;;;;;;;;;;;;;;;;;2211765;67;1196;-69
2022/03/14 17:34:53;;;;;;;;;;;;;;;;;;2211402;59;1144;-69
2022/03/14 17:37:29;;;;;;;;;;;;;;;;;;2211317;67;1247;-69
2022/03/14 17:40:02;;;;;;;;;;;;;;;;;;2211647;67;1254;-69
2022/03/14 17:42:36;;;;;;;;;;;;;;;;;;2211102;67;1241;-69
2022/03/14 17:45:09;;;;;;;;;;;;;;;;;;2211207;59;1929;-69
2022/03/14 17:47:43;;;;;;;;;;;;;;;;;;2211133;67;1187;-68
2022/03/14 17:50:16;;;;;;;;;;;;;;;;;;2211225;59;1906;-69
2022/03/14 17:52:52;;;;;;;;;;;;;;;;;;2211127;67;1129;-68